Hauptseite
METAR-TAF:

METAR-TAF

Flughäfen :

Reims, Frankreich

Breite: 49-12-31N, Länge: 004-09-24E, Höhe: 95 m

Beobachtung

Neuester Wetterbericht von vor 33 Minuten, um 18:00 UTC
Wind 5 kt aus Süd/Südwest, variierte zwischen Süd und West/Südwest
Temperatur 18°C
Luftfeuchtigkeit 64%
Luftdruck 1016 hPa
Sichtweite 10 km oder mehr
keine Wolken unter 1500 m und keine Kumulonimbus oder Gewitterwolken

METAR: LFQA 231800Z AUTO 21005KT 180V250 CAVOK 18/11 Q1016

Zeit: 20:33 (18:33 UTC)


TAF: fehlend

Wetterbeobachtungen und Prognosen von mehr als 4000 Flughäfen (METAR und TAF Bericht).

Die verfügbaren Stationen werden durch gelbe und rote Markierungen auf der Karte dargestellt.

Führen Sie die Maus auf sie, um den Namen der Station zu sehen.

Darauf klicken, um die Beobachtung von Wetterbeobachtungen und Prognosen zu sehen.

Um die Karte zu ändern : klicken Sie auf den grünen Tasten mit einem schwarzen Kreuz Zum Vergrößern, auf den grünen Button mit einem Gedankenstrich zu verkleinern, oder auf die grünen Pfeile für benachbarte Karten.


METAR-TAF: